createdAt,value
2023-03-31T00:01:13.757Z,82.57
2023-03-31T00:03:44.845Z,82.53
2023-03-31T00:06:18.710Z,82.63
2023-03-31T00:08:51.599Z,82.53
2023-03-31T00:11:22.534Z,82.54
2023-03-31T00:13:51.058Z,82.47
2023-03-31T00:16:19.903Z,82.35
2023-03-31T00:18:51.122Z,82.42
2023-03-31T00:21:33.942Z,82.44
2023-03-31T00:24:08.430Z,82.35
2023-03-31T00:26:38.326Z,82.46
2023-03-31T00:29:08.423Z,82.57
2023-03-31T00:31:36.652Z,82.45
2023-03-31T00:34:05.881Z,82.37
2023-03-31T00:36:36.875Z,82.38
2023-03-31T00:39:09.575Z,82.40
2023-03-31T00:41:39.288Z,82.30
2023-03-31T00:44:24.895Z,82.31
2023-03-31T00:47:11.602Z,82.33
2023-03-31T00:49:45.218Z,82.37
2023-03-31T00:52:19.060Z,82.28
2023-03-31T00:54:49.510Z,82.36
2023-03-31T00:57:18.137Z,82.38
2023-03-31T00:59:59.222Z,82.43
2023-03-31T01:02:28.785Z,82.40
2023-03-31T01:05:02.288Z,82.36
2023-03-31T01:07:39.412Z,82.35
2023-03-31T01:10:08.929Z,82.35
2023-03-31T01:12:42.469Z,82.21
2023-03-31T01:15:11.044Z,82.18
2023-03-31T01:17:40.887Z,82.23
2023-03-31T01:20:21.429Z,82.24
2023-03-31T01:23:08.891Z,82.21
2023-03-31T01:25:51.323Z,82.24
2023-03-31T01:28:33.624Z,82.20
2023-03-31T01:31:39.681Z,82.13
2023-03-31T01:34:29.721Z,82.11
2023-03-31T01:37:19.146Z,82.05
2023-03-31T01:40:08.637Z,82.10
2023-03-31T01:42:46.346Z,82.21
2023-03-31T01:45:27.240Z,82.12
2023-03-31T01:48:13.108Z,82.05
2023-03-31T01:51:06.765Z,82.03
2023-03-31T01:53:45.808Z,81.92
2023-03-31T01:56:39.150Z,81.89
2023-03-31T01:59:18.213Z,81.86
2023-03-31T02:01:56.533Z,81.95
2023-03-31T02:04:42.475Z,81.92
2023-03-31T02:07:17.633Z,81.99
2023-03-31T02:09:52.071Z,81.88
2023-03-31T02:12:22.598Z,81.91
2023-03-31T02:14:54.640Z,81.91
2023-03-31T02:17:30.541Z,82.06
2023-03-31T02:20:05.884Z,82.00
2023-03-31T02:22:37.736Z,81.84
2023-03-31T02:25:10.738Z,81.94
2023-03-31T02:27:43.267Z,81.91
2023-03-31T02:30:13.257Z,82.00
2023-03-31T02:32:43.542Z,81.86
2023-03-31T02:35:22.291Z,81.94
2023-03-31T02:37:50.669Z,81.99
2023-03-31T02:40:21.879Z,81.91
2023-03-31T02:42:50.652Z,81.97
2023-03-31T02:45:37.835Z,82.07
2023-03-31T02:48:09.900Z,82.01
2023-03-31T02:51:03.269Z,82.17
2023-03-31T02:53:59.006Z,82.32
2023-03-31T02:57:00.778Z,82.42
2023-03-31T02:59:47.219Z,82.30
2023-03-31T03:02:33.000Z,82.51
2023-03-31T03:05:27.762Z,83.07
2023-03-31T03:08:01.042Z,82.83
2023-03-31T03:10:39.401Z,82.67
2023-03-31T03:13:15.425Z,82.88
2023-03-31T03:15:50.774Z,82.71
2023-03-31T03:18:18.921Z,82.77
2023-03-31T03:20:49.341Z,83.25
2023-03-31T03:23:18.032Z,83.47
2023-03-31T03:25:47.088Z,83.23
2023-03-31T03:28:15.049Z,83.30
2023-03-31T03:30:42.901Z,83.29
2023-03-31T03:33:17.131Z,83.40
2023-03-31T03:35:45.400Z,83.72
2023-03-31T03:38:13.724Z,83.66
2023-03-31T03:40:41.525Z,83.56
2023-03-31T03:43:09.567Z,83.66
2023-03-31T03:45:37.637Z,84.06
2023-03-31T03:48:05.675Z,84.20
2023-03-31T03:50:36.669Z,83.93
2023-03-31T03:53:05.005Z,84.13
2023-03-31T03:55:32.977Z,84.15
2023-03-31T03:58:01.119Z,84.04
2023-03-31T04:00:28.873Z,84.05
2023-03-31T04:02:57.003Z,84.27
2023-03-31T04:05:25.122Z,84.51
2023-03-31T04:07:53.158Z,84.31
2023-03-31T04:10:21.072Z,84.23
2023-03-31T04:12:48.988Z,84.09
2023-03-31T04:15:16.894Z,84.50
2023-03-31T04:17:51.232Z,84.47
2023-03-31T04:20:19.231Z,84.40
2023-03-31T04:22:50.820Z,84.35
2023-03-31T04:25:18.782Z,84.20
2023-03-31T04:27:54.937Z,84.49
2023-03-31T04:30:24.511Z,84.70
2023-03-31T04:33:00.944Z,84.46
2023-03-31T04:35:51.657Z,84.20
2023-03-31T04:38:22.183Z,84.33
2023-03-31T04:40:52.101Z,84.47
2023-03-31T04:43:21.325Z,84.41
2023-03-31T04:45:49.165Z,84.55
2023-03-31T04:48:17.590Z,84.53
2023-03-31T04:50:47.060Z,84.63
2023-03-31T04:53:14.955Z,84.54
2023-03-31T04:55:42.774Z,84.42
2023-03-31T04:58:10.601Z,84.48
2023-03-31T05:00:38.476Z,84.52
2023-03-31T05:03:06.948Z,84.33
2023-03-31T05:05:35.010Z,84.40
2023-03-31T05:08:03.429Z,84.00
2023-03-31T05:10:32.059Z,84.17
2023-03-31T05:12:59.886Z,84.29
2023-03-31T05:15:27.754Z,84.19
2023-03-31T05:17:55.669Z,84.12
2023-03-31T05:20:24.306Z,84.27
2023-03-31T05:22:52.098Z,84.25
2023-03-31T05:25:19.899Z,84.10
2023-03-31T05:27:48.135Z,83.84
2023-03-31T05:30:17.459Z,83.56
2023-03-31T05:32:45.860Z,83.61
2023-03-31T05:35:13.714Z,83.78
2023-03-31T05:37:41.576Z,83.82
2023-03-31T05:40:10.958Z,83.81
2023-03-31T05:42:39.241Z,83.74
2023-03-31T05:45:09.231Z,83.75
2023-03-31T05:47:37.337Z,83.76
2023-03-31T05:50:09.121Z,83.56
2023-03-31T05:52:37.199Z,83.56
2023-03-31T05:55:05.310Z,83.41
2023-03-31T05:57:33.171Z,83.20
2023-03-31T06:00:01.123Z,82.96
2023-03-31T06:02:29.252Z,82.95
2023-03-31T06:04:58.145Z,82.80
2023-03-31T06:07:26.430Z,82.70
2023-03-31T06:09:54.302Z,82.54
2023-03-31T06:12:22.090Z,82.66
2023-03-31T06:14:49.860Z,82.53
2023-03-31T06:17:17.668Z,82.47
2023-03-31T06:19:46.227Z,82.28
2023-03-31T06:22:14.619Z,82.08
2023-03-31T06:24:42.402Z,81.87
2023-03-31T06:27:10.355Z,81.68
2023-03-31T06:29:38.170Z,81.50
2023-03-31T06:32:06.169Z,81.34
2023-03-31T06:34:34.754Z,81.13
2023-03-31T06:37:03.401Z,80.99
2023-03-31T06:39:31.458Z,80.96
2023-03-31T06:41:59.385Z,80.83
2023-03-31T06:44:27.264Z,80.53
2023-03-31T06:46:55.193Z,80.45
2023-03-31T06:49:23.555Z,80.41
2023-03-31T06:51:52.608Z,80.31
2023-03-31T06:54:20.441Z,80.13
2023-03-31T06:56:48.329Z,79.99
2023-03-31T06:59:16.373Z,79.83
2023-03-31T07:01:46.232Z,79.82
2023-03-31T07:04:14.923Z,79.72
2023-03-31T07:06:43.173Z,79.61
2023-03-31T07:09:10.978Z,79.51
2023-03-31T07:11:38.792Z,79.34
2023-03-31T07:14:06.766Z,79.11
2023-03-31T07:16:34.674Z,78.88
2023-03-31T07:19:04.643Z,78.76
2023-03-31T07:21:32.978Z,78.68
2023-03-31T07:24:00.809Z,78.62
2023-03-31T07:26:28.734Z,78.59
2023-03-31T07:28:57.575Z,78.44
2023-03-31T07:31:26.472Z,78.67
2023-03-31T07:33:54.866Z,78.68
2023-03-31T07:36:23.398Z,78.33
2023-03-31T07:38:51.425Z,77.87
2023-03-31T07:41:21.401Z,77.57
2023-03-31T07:43:50.647Z,77.06
2023-03-31T07:46:24.965Z,76.94
2023-03-31T07:48:55.090Z,76.77
2023-03-31T07:51:26.219Z,76.61
2023-03-31T07:53:54.066Z,76.46
2023-03-31T07:56:25.576Z,76.34
2023-03-31T07:58:56.806Z,76.14
2023-03-31T08:01:26.449Z,76.09
2023-03-31T08:03:56.209Z,75.82
2023-03-31T08:06:25.675Z,75.87
2023-03-31T08:08:53.621Z,75.73
2023-03-31T08:11:21.967Z,75.59
2023-03-31T08:13:50.435Z,75.34
2023-03-31T08:16:18.824Z,74.73
2023-03-31T08:18:47.326Z,74.21
2023-03-31T08:21:15.364Z,73.90
2023-03-31T08:23:43.166Z,73.75
2023-03-31T08:26:16.549Z,73.82
2023-03-31T08:28:49.092Z,73.75
2023-03-31T08:31:19.297Z,73.57
2023-03-31T08:33:48.193Z,73.31
2023-03-31T08:36:16.527Z,73.10
2023-03-31T08:38:49.819Z,72.65
2023-03-31T08:41:43.442Z,72.60
2023-03-31T08:44:18.106Z,72.43
2023-03-31T08:46:46.835Z,72.34
2023-03-31T08:49:18.483Z,72.13
2023-03-31T08:51:51.312Z,72.01
2023-03-31T08:54:25.774Z,71.65
2023-03-31T08:56:54.098Z,71.61
2023-03-31T08:59:34.419Z,71.49
2023-03-31T09:02:18.945Z,71.51
2023-03-31T09:04:56.473Z,71.37
2023-03-31T09:07:46.845Z,71.35
2023-03-31T09:10:51.213Z,71.29
2023-03-31T09:13:18.860Z,71.16
2023-03-31T09:15:58.928Z,71.15
2023-03-31T09:18:38.721Z,70.87
2023-03-31T09:21:32.222Z,70.40
2023-03-31T09:24:08.580Z,70.53
2023-03-31T09:26:53.245Z,70.41
2023-03-31T09:29:37.508Z,70.01
2023-03-31T09:32:20.917Z,69.12
2023-03-31T09:34:54.533Z,69.22
2023-03-31T09:37:22.933Z,68.70
2023-03-31T09:39:51.534Z,68.94
2023-03-31T09:42:19.448Z,67.96
2023-03-31T09:44:52.380Z,67.31
2023-03-31T09:47:30.164Z,67.92
2023-03-31T09:49:58.689Z,67.14
2023-03-31T09:52:28.404Z,67.47
2023-03-31T09:55:00.736Z,67.95
2023-03-31T09:57:35.165Z,68.31
2023-03-31T10:00:16.703Z,67.81
2023-03-31T10:02:51.851Z,67.85
2023-03-31T10:05:36.815Z,67.80
2023-03-31T10:08:17.882Z,67.59
2023-03-31T10:11:11.931Z,67.83
2023-03-31T10:13:39.589Z,68.18
2023-03-31T10:16:12.868Z,68.23
2023-03-31T10:18:43.744Z,68.57
2023-03-31T10:21:35.592Z,68.37
2023-03-31T10:24:09.831Z,68.36
2023-03-31T10:26:39.930Z,68.08
2023-03-31T10:29:13.954Z,67.87
2023-03-31T10:31:42.526Z,67.86
2023-03-31T10:34:17.244Z,67.64
2023-03-31T10:36:52.105Z,67.14
2023-03-31T10:39:21.040Z,67.05
2023-03-31T10:41:52.217Z,66.35
2023-03-31T10:44:34.869Z,66.55
2023-03-31T10:47:07.010Z,65.89
2023-03-31T10:49:40.917Z,65.88
2023-03-31T10:52:19.917Z,66.29
2023-03-31T10:54:50.406Z,65.71
2023-03-31T10:57:21.141Z,65.83
2023-03-31T11:00:05.902Z,65.22
2023-03-31T11:02:40.310Z,64.66
2023-03-31T11:05:30.535Z,64.62
2023-03-31T11:08:36.535Z,64.47
2023-03-31T11:11:05.103Z,64.33
2023-03-31T11:13:59.292Z,64.03
2023-03-31T11:16:39.206Z,63.81
2023-03-31T11:19:53.718Z,64.29
2023-03-31T11:22:31.527Z,64.11
2023-03-31T11:25:10.310Z,64.41
2023-03-31T11:28:10.564Z,64.60
2023-03-31T11:31:13.720Z,65.00
2023-03-31T11:34:08.401Z,64.71
2023-03-31T11:36:42.799Z,64.61
2023-03-31T11:39:29.500Z,64.54
2023-03-31T11:42:25.353Z,64.31
2023-03-31T11:45:00.461Z,64.50
2023-03-31T11:47:37.926Z,65.00
2023-03-31T11:50:22.104Z,65.40
2023-03-31T11:53:12.773Z,65.69
2023-03-31T11:55:41.792Z,65.87
2023-03-31T11:58:43.110Z,66.25
2023-03-31T12:01:14.645Z,66.58
2023-03-31T12:04:11.755Z,66.75
2023-03-31T12:06:43.015Z,66.94
2023-03-31T12:09:39.217Z,66.74
2023-03-31T12:12:28.478Z,66.43
2023-03-31T12:15:11.413Z,66.50
2023-03-31T12:17:43.571Z,66.49
2023-03-31T12:20:38.014Z,66.36
2023-03-31T12:23:15.086Z,66.25
2023-03-31T12:26:02.177Z,65.88
2023-03-31T12:28:33.752Z,65.84
2023-03-31T12:31:06.103Z,65.91
2023-03-31T12:33:40.863Z,65.86
2023-03-31T12:36:22.483Z,65.81
2023-03-31T12:39:09.090Z,65.80
2023-03-31T12:41:56.494Z,65.91
2023-03-31T12:44:46.636Z,66.20
2023-03-31T12:47:21.521Z,66.06
2023-03-31T12:50:02.873Z,65.92
2023-03-31T12:52:58.673Z,65.63
2023-03-31T12:55:36.171Z,65.42
2023-03-31T12:58:22.568Z,65.38
2023-03-31T13:01:14.528Z,64.93
2023-03-31T13:03:52.662Z,64.66
2023-03-31T13:06:30.046Z,64.96
2023-03-31T13:09:13.153Z,65.12
2023-03-31T13:11:47.811Z,65.52
2023-03-31T13:14:20.315Z,65.67
2023-03-31T13:16:49.887Z,65.82
2023-03-31T13:19:35.091Z,65.92
2023-03-31T13:22:06.229Z,66.27
2023-03-31T13:24:35.598Z,66.43
2023-03-31T13:27:32.894Z,66.60
2023-03-31T13:30:00.877Z,66.46
2023-03-31T13:32:29.411Z,66.38
2023-03-31T13:35:21.731Z,66.34
2023-03-31T13:38:11.599Z,66.45
2023-03-31T13:40:56.110Z,66.83
2023-03-31T13:43:57.816Z,67.09
2023-03-31T13:46:31.976Z,66.74
2023-03-31T13:49:38.637Z,66.40
2023-03-31T13:52:12.613Z,65.23
2023-03-31T13:55:07.585Z,64.86
2023-03-31T13:57:38.725Z,64.54
2023-03-31T14:00:17.099Z,64.26
2023-03-31T14:03:24.473Z,64.41
2023-03-31T14:06:29.898Z,64.71
2023-03-31T14:09:07.176Z,64.32
2023-03-31T14:11:35.896Z,64.51
2023-03-31T14:14:16.210Z,64.54
2023-03-31T14:16:52.777Z,64.53
2023-03-31T14:19:27.508Z,64.57
2023-03-31T14:22:21.284Z,64.83
2023-03-31T14:25:03.401Z,64.87
2023-03-31T14:27:34.060Z,64.94
2023-03-31T14:30:29.806Z,64.92
2023-03-31T14:33:03.511Z,65.40
2023-03-31T14:35:43.035Z,65.43
2023-03-31T14:38:18.172Z,65.52
2023-03-31T14:40:50.168Z,65.85
2023-03-31T14:43:30.431Z,65.92
2023-03-31T14:46:04.385Z,66.02
2023-03-31T14:48:34.727Z,66.54
2023-03-31T14:51:04.037Z,66.63
2023-03-31T14:53:31.974Z,66.72
2023-03-31T14:56:09.682Z,66.89
2023-03-31T14:58:44.900Z,67.04
2023-03-31T15:01:19.060Z,67.15
2023-03-31T15:03:48.252Z,67.38
2023-03-31T15:06:16.525Z,67.42
2023-03-31T15:08:45.983Z,66.91
2023-03-31T15:11:19.554Z,66.88
2023-03-31T15:14:05.412Z,66.89
2023-03-31T15:16:47.045Z,66.55
2023-03-31T15:19:19.169Z,66.47
2023-03-31T15:21:55.362Z,66.63
2023-03-31T15:24:24.104Z,66.79
2023-03-31T15:27:06.259Z,67.06
2023-03-31T15:29:42.368Z,67.16
2023-03-31T15:32:31.595Z,67.28
2023-03-31T15:35:11.053Z,67.41
2023-03-31T15:37:44.870Z,67.58
2023-03-31T15:40:22.512Z,67.97
2023-03-31T15:43:06.355Z,68.14
2023-03-31T15:45:48.036Z,68.32
2023-03-31T15:48:51.279Z,68.48
2023-03-31T15:51:35.766Z,68.65
2023-03-31T15:54:24.547Z,68.86
2023-03-31T15:56:59.616Z,69.12
2023-03-31T15:59:41.636Z,69.44
2023-03-31T16:02:19.009Z,69.56
2023-03-31T16:04:54.813Z,69.71
2023-03-31T16:07:30.135Z,69.67
2023-03-31T16:10:07.219Z,69.72
2023-03-31T16:12:48.834Z,69.66
2023-03-31T16:15:25.044Z,69.85
2023-03-31T16:17:57.746Z,69.98
2023-03-31T16:20:31.928Z,70.27
2023-03-31T16:23:00.551Z,70.42
2023-03-31T16:25:31.850Z,70.67
2023-03-31T16:28:02.161Z,70.79
2023-03-31T16:30:39.612Z,70.98
2023-03-31T16:33:10.549Z,71.50
2023-03-31T16:35:40.677Z,71.70
2023-03-31T16:38:16.235Z,71.95
2023-03-31T16:40:49.367Z,72.21
2023-03-31T16:43:30.115Z,72.54
2023-03-31T16:46:00.198Z,72.90
2023-03-31T16:48:30.561Z,73.19
2023-03-31T16:51:00.438Z,73.28
2023-03-31T16:53:31.228Z,73.66
2023-03-31T16:55:59.733Z,73.68
2023-03-31T16:58:29.053Z,73.81
2023-03-31T17:00:58.194Z,74.06
2023-03-31T17:03:27.607Z,74.14
2023-03-31T17:05:59.182Z,74.46
2023-03-31T17:08:28.199Z,74.72
2023-03-31T17:10:59.789Z,74.70
2023-03-31T17:13:28.152Z,74.83
2023-03-31T17:18:47.380Z,75.11
2023-03-31T17:21:20.157Z,75.18
2023-03-31T17:23:48.101Z,75.45
2023-03-31T17:26:18.038Z,75.67
2023-03-31T17:28:46.230Z,75.77
2023-03-31T17:31:16.861Z,75.92
2023-03-31T17:33:45.125Z,76.23
2023-03-31T17:36:13.467Z,76.54
2023-03-31T17:38:42.103Z,76.71
2023-03-31T17:41:13.070Z,76.95
2023-03-31T17:43:45.037Z,77.34
2023-03-31T17:46:13.745Z,77.28
2023-03-31T17:48:43.324Z,77.33
2023-03-31T17:51:15.095Z,77.63
2023-03-31T17:53:45.735Z,77.88
2023-03-31T17:56:15.668Z,77.83
2023-03-31T17:58:44.464Z,77.78
2023-03-31T18:01:13.701Z,77.81
2023-03-31T18:03:42.308Z,77.78
2023-03-31T18:06:12.957Z,77.86
2023-03-31T18:08:42.081Z,78.00
2023-03-31T18:11:10.101Z,78.11
2023-03-31T18:13:37.967Z,78.13
2023-03-31T18:16:09.671Z,78.51
2023-03-31T18:18:39.528Z,78.70
2023-03-31T18:21:10.304Z,78.71
2023-03-31T18:23:38.946Z,78.87
2023-03-31T18:26:08.547Z,79.04
2023-03-31T18:28:36.942Z,78.99
2023-03-31T18:31:06.183Z,79.02
2023-03-31T18:33:34.758Z,79.26
2023-03-31T18:36:03.595Z,79.56
2023-03-31T18:38:32.664Z,79.46
2023-03-31T18:41:00.489Z,79.35
2023-03-31T18:43:30.118Z,79.32
2023-03-31T18:46:01.363Z,79.40
2023-03-31T18:48:29.359Z,79.51
2023-03-31T18:50:58.386Z,79.35
2023-03-31T18:53:26.727Z,79.35
2023-03-31T18:55:57.775Z,79.52
2023-03-31T18:58:28.021Z,79.67
2023-03-31T19:00:57.687Z,79.82
2023-03-31T19:03:27.034Z,79.83
2023-03-31T19:06:04.786Z,79.80
2023-03-31T19:08:33.336Z,79.91
2023-03-31T19:11:04.910Z,79.86
2023-03-31T19:13:32.917Z,79.98
2023-03-31T19:16:01.018Z,79.96
2023-03-31T19:18:29.977Z,79.91
2023-03-31T19:21:01.757Z,80.11
2023-03-31T19:23:31.708Z,79.88
2023-03-31T19:25:59.795Z,79.79
2023-03-31T19:28:27.986Z,79.82
2023-03-31T19:30:56.824Z,79.82
2023-03-31T19:33:42.193Z,79.76
2023-03-31T19:36:27.342Z,79.74
2023-03-31T19:38:58.791Z,79.69
2023-03-31T19:41:41.392Z,79.68
2023-03-31T19:44:14.347Z,79.53
2023-03-31T19:46:46.027Z,79.61
2023-03-31T19:49:18.072Z,79.49
2023-03-31T19:51:51.080Z,79.56
2023-03-31T19:54:26.962Z,79.51
2023-03-31T19:57:00.407Z,79.47
2023-03-31T19:59:44.774Z,79.51
2023-03-31T20:02:18.540Z,79.69
2023-03-31T20:04:57.751Z,79.76
2023-03-31T20:07:32.295Z,79.71
2023-03-31T20:10:04.084Z,79.83
2023-03-31T20:12:43.739Z,79.95
2023-03-31T20:15:19.808Z,79.91
2023-03-31T20:17:51.468Z,80.02
2023-03-31T20:20:22.995Z,79.92
2023-03-31T20:22:52.479Z,79.95
2023-03-31T20:25:29.043Z,80.02
2023-03-31T20:27:57.607Z,80.16
2023-03-31T20:30:26.695Z,80.19
2023-03-31T20:32:54.690Z,80.16
2023-03-31T20:35:25.589Z,80.18
2023-03-31T20:37:54.425Z,80.14
2023-03-31T20:40:32.883Z,80.29
2023-03-31T20:43:01.917Z,80.36
2023-03-31T20:45:32.990Z,80.35
2023-03-31T20:48:02.318Z,80.64
2023-03-31T20:50:37.186Z,80.61
2023-03-31T20:53:05.758Z,80.63
2023-03-31T20:55:34.207Z,80.68
2023-03-31T20:58:02.021Z,80.63
2023-03-31T21:00:30.242Z,80.58
2023-03-31T21:02:58.586Z,80.61
2023-03-31T21:05:26.761Z,80.57
2023-03-31T21:07:54.534Z,80.65
2023-03-31T21:10:25.827Z,80.84
2023-03-31T21:12:54.420Z,80.80
2023-03-31T21:15:22.554Z,81.04
2023-03-31T21:17:51.114Z,81.02
2023-03-31T21:20:18.955Z,81.09
2023-03-31T21:22:49.448Z,81.13
2023-03-31T21:25:26.412Z,81.19
2023-03-31T21:27:54.902Z,81.25
2023-03-31T21:30:22.971Z,81.14
2023-03-31T21:32:50.794Z,81.10
2023-03-31T21:35:19.678Z,81.11
2023-03-31T21:37:48.162Z,81.17
2023-03-31T21:40:16.841Z,81.28
2023-03-31T21:42:44.831Z,81.50
2023-03-31T21:45:13.484Z,81.58
2023-03-31T21:47:41.339Z,81.50
2023-03-31T21:50:11.206Z,81.51
2023-03-31T21:52:39.635Z,81.53
2023-03-31T21:55:07.903Z,81.46
2023-03-31T21:57:35.771Z,81.43
2023-03-31T22:00:06.260Z,81.30
2023-03-31T22:02:34.154Z,81.19
2023-03-31T22:05:03.851Z,81.16
2023-03-31T22:07:42.170Z,81.26
2023-03-31T22:10:10.797Z,81.29
2023-03-31T22:12:39.493Z,81.31
2023-03-31T22:15:07.816Z,81.29
2023-03-31T22:17:35.796Z,81.33
2023-03-31T22:20:05.105Z,81.46
2023-03-31T22:22:34.167Z,81.56
2023-03-31T22:25:01.937Z,81.55
2023-03-31T22:27:29.731Z,81.47
2023-03-31T22:29:57.661Z,81.49
2023-03-31T22:32:25.630Z,81.48
2023-03-31T22:34:53.807Z,81.55
2023-03-31T22:37:21.648Z,81.62
2023-03-31T22:39:49.454Z,81.58
2023-03-31T22:42:17.661Z,81.65
2023-03-31T22:44:45.489Z,81.73
2023-03-31T22:47:13.561Z,81.78
2023-03-31T22:49:41.572Z,81.69
2023-03-31T22:52:09.422Z,81.67
2023-03-31T22:54:37.243Z,81.68
2023-03-31T22:57:05.306Z,81.73
2023-03-31T22:59:33.903Z,81.73
2023-03-31T23:02:02.434Z,81.69
2023-03-31T23:04:34.176Z,81.75
2023-03-31T23:07:02.045Z,81.72
2023-03-31T23:09:29.878Z,81.85
2023-03-31T23:11:57.646Z,82.04
2023-03-31T23:14:25.540Z,82.03
2023-03-31T23:16:55.084Z,82.05
2023-03-31T23:19:24.318Z,82.05
2023-03-31T23:21:52.713Z,82.10
2023-03-31T23:24:21.380Z,82.07
2023-03-31T23:26:49.210Z,81.98
2023-03-31T23:29:16.996Z,81.93
2023-03-31T23:31:45.320Z,81.89
2023-03-31T23:34:14.180Z,81.84
2023-03-31T23:36:42.366Z,81.93
2023-03-31T23:39:10.734Z,81.96
2023-03-31T23:41:38.627Z,82.04
2023-03-31T23:44:06.975Z,81.97
2023-03-31T23:46:36.341Z,81.92
2023-03-31T23:49:05.130Z,81.91
2023-03-31T23:51:33.057Z,82.00
2023-03-31T23:54:01.318Z,81.99
2023-03-31T23:56:29.587Z,81.96
2023-03-31T23:58:57.453Z,81.98
